Time;durP1;ratioP1;P1;durP2;ratioP2;P2;SDS_P1;SDS_P2;PMS_P1;PMS_P2;Temp;Humidity;BMP_temperature;BMP_pressure;BME280_temperature;BME280_humidity;BME280_pressure;Samples;Min_cycle;Max_cycle;Signal;HPM_P1;HPM_P2
2021/04/26 00:02:22;;;;;;;;;;;3.40;99.90;;;;;;10564231;28;19923;-86
2021/04/26 00:07:23;;;;;;;;;;;3.40;99.90;;;;;;10589537;28;19924;-86
2021/04/26 00:12:25;;;;;;;;;;;6.10;99.90;;;;;;10590341;28;19923;-87
2021/04/26 00:17:26;;;;;;;;;;;6.10;99.90;;;;;;10588923;28;19924;-86
2021/04/26 00:22:28;;;;;;;;;;;3.70;99.90;;;;;;10571174;28;20487;-87
2021/04/26 00:27:29;;;;;;;;;;;3.60;99.90;;;;;;10571048;28;19928;-87
2021/04/26 00:32:30;;;;;;;;;;;3.30;99.90;;;;;;10571423;28;19927;-87
2021/04/26 00:37:31;;;;;;;;;;;3.40;99.90;;;;;;10475047;28;20009;-87
2021/04/26 00:42:33;;;;;;;;;;;3.50;99.90;;;;;;10357124;28;20414;-87
2021/04/26 00:47:39;;;;;;;;;;;3.60;99.90;;;;;;10341165;28;20028;-86
2021/04/26 00:52:40;;;;;;;;;;;3.50;99.90;;;;;;10372768;28;20358;-87
2021/04/26 00:57:42;;;;;;;;;;;3.60;99.90;;;;;;10356774;28;19932;-87
2021/04/26 01:02:43;;;;;;;;;;;2.70;99.90;;;;;;10339941;28;20004;-87
2021/04/26 01:07:45;;;;;;;;;;;3.10;99.90;;;;;;10356542;28;19925;-87
2021/04/26 01:13:09;;;;;;;;;;;3.10;99.90;;;;;;10372118;28;20371;-87
2021/04/26 01:18:22;;;;;;;;;;;3.10;99.90;;;;;;10347513;28;20364;-87
2021/04/26 01:23:42;;;;;;;;;;;3.00;99.90;;;;;;10374048;28;19932;-87
2021/04/26 01:29:04;;;;;;;;;;;3.00;99.90;;;;;;10379989;28;19931;-87
2021/04/26 01:34:06;;;;;;;;;;;3.00;99.90;;;;;;10515295;22;19931;-88
2021/04/26 01:39:08;;;;;;;;;;;3.60;99.90;;;;;;10372402;28;20295;-88
2021/04/26 01:44:10;;;;;;;;;;;3.00;99.90;;;;;;10372263;28;20299;-88
2021/04/26 01:49:11;;;;;;;;;;;5.70;99.90;;;;;;10439553;28;20375;-88
2021/04/26 01:54:13;;;;;;;;;;;3.90;99.90;;;;;;10354398;28;20286;-88
2021/04/26 01:59:15;;;;;;;;;;;2.90;99.90;;;;;;10354359;28;20295;-88
2021/04/26 02:04:16;;;;;;;;;;;2.60;99.90;;;;;;10371883;28;19963;-88
2021/04/26 02:09:17;;;;;;;;;;;4.10;99.90;;;;;;10370552;28;19925;-88
2021/04/26 02:14:19;;;;;;;;;;;3.30;99.90;;;;;;10371119;28;19933;-88
2021/04/26 02:19:21;;;;;;;;;;;5.10;99.90;;;;;;10439016;28;19934;-88
2021/04/26 02:24:23;;;;;;;;;;;3.60;99.90;;;;;;10371545;28;20012;-88
2021/04/26 02:29:25;;;;;;;;;;;2.90;99.90;;;;;;10438010;28;19925;-88
2021/04/26 02:34:28;;;;;;;;;;;2.30;99.90;;;;;;10353616;28;20020;-88
2021/04/26 02:39:31;;;;;;;;;;;2.50;99.90;;;;;;10437793;28;20020;-88
2021/04/26 02:44:33;;;;;;;;;;;2.10;99.90;;;;;;10371069;28;19930;-88
2021/04/26 02:49:38;;;;;;;;;;;2.10;99.90;;;;;;10370736;28;19926;-88
2021/04/26 02:54:40;;;;;;;;;;;2.00;99.90;;;;;;10437196;28;20390;-88
2021/04/26 02:59:42;;;;;;;;;;;3.40;99.90;;;;;;10370532;28;19926;-88
2021/04/26 03:04:43;;;;;;;;;;;2.40;99.90;;;;;;10437115;28;20372;-88
2021/04/26 03:09:45;;;;;;;;;;;1.90;99.90;;;;;;10420291;28;19947;-88
2021/04/26 03:14:46;;;;;;;;;;;1.80;99.90;;;;;;10368602;28;20391;-87
2021/04/26 03:19:47;;;;;;;;;;;1.70;99.90;;;;;;10369481;28;19926;-88
2021/04/26 03:24:49;;;;;;;;;;;1.70;99.90;;;;;;10369668;28;19936;-88
2021/04/26 03:29:51;;;;;;;;;;;1.40;99.90;;;;;;10368010;28;20394;-88
2021/04/26 03:34:53;;;;;;;;;;;1.50;99.90;;;;;;10369322;28;19925;-87
2021/04/26 03:39:55;;;;;;;;;;;1.50;99.90;;;;;;10372722;28;19925;-87
2021/04/26 03:44:57;;;;;;;;;;;1.30;99.90;;;;;;10375571;28;19998;-87
2021/04/26 03:49:58;;;;;;;;;;;1.60;99.90;;;;;;10443439;28;19925;-87
2021/04/26 03:55:00;;;;;;;;;;;1.30;99.90;;;;;;10370710;28;19934;-88
2021/04/26 04:00:03;;;;;;;;;;;3.40;99.90;;;;;;10374674;28;19926;-88
2021/04/26 04:05:06;;;;;;;;;;;1.10;99.90;;;;;;10357695;28;20374;-87
2021/04/26 04:10:09;;;;;;;;;;;1.10;99.90;;;;;;10375623;28;19925;-87
2021/04/26 04:15:10;;;;;;;;;;;1.00;99.90;;;;;;10357708;28;19926;-87
2021/04/26 04:20:12;;;;;;;;;;;1.20;99.90;;;;;;10375523;28;19926;-87
2021/04/26 04:25:14;;;;;;;;;;;1.20;99.90;;;;;;10374596;28;19968;-88
2021/04/26 04:30:16;;;;;;;;;;;1.20;99.90;;;;;;10361083;28;19929;-89
2021/04/26 04:35:17;;;;;;;;;;;1.10;99.90;;;;;;10355604;28;20377;-89
2021/04/26 04:40:18;;;;;;;;;;;1.00;99.90;;;;;;10373073;28;20265;-89
2021/04/26 04:45:20;;;;;;;;;;;1.20;99.90;;;;;;10365211;28;19930;-89
2021/04/26 04:50:21;;;;;;;;;;;1.40;99.90;;;;;;10315281;28;19932;-89
2021/04/26 04:55:22;;;;;;;;;;;1.20;99.90;;;;;;10333965;28;19932;-88
2021/04/26 05:00:24;;;;;;;;;;;1.30;99.90;;;;;;10333425;28;20292;-88
2021/04/26 05:05:25;;;;;;;;;;;1.30;99.90;;;;;;10339142;28;19931;-88
2021/04/26 05:10:29;;;;;;;;;;;1.60;99.90;;;;;;10373748;28;19926;-88
2021/04/26 05:15:30;;;;;;;;;;;3.30;99.90;;;;;;10364362;28;19930;-89
2021/04/26 05:20:31;;;;;;;;;;;4.00;99.90;;;;;;10315873;28;19926;-89
2021/04/26 05:25:33;;;;;;;;;;;1.90;99.90;;;;;;10331209;28;20408;-89
2021/04/26 05:30:34;;;;;;;;;;;4.00;99.90;;;;;;10332042;28;20376;-89
2021/04/26 05:35:35;;;;;;;;;;;2.40;99.90;;;;;;10332152;28;19925;-89
2021/04/26 05:40:37;;;;;;;;;;;2.90;99.90;;;;;;10330862;28;20361;-89
2021/04/26 05:45:39;;;;;;;;;;;2.70;99.90;;;;;;10329682;28;19926;-90
2021/04/26 05:50:40;;;;;;;;;;;2.70;99.90;;;;;;10332205;28;20044;-90
2021/04/26 05:55:41;;;;;;;;;;;2.90;99.90;;;;;;10332052;28;19932;-90
2021/04/26 06:00:43;;;;;;;;;;;5.40;99.90;;;;;;10331500;28;19932;-90
2021/04/26 06:05:44;;;;;;;;;;;5.50;99.90;;;;;;10313965;28;20376;-90
2021/04/26 06:10:51;;;;;;;;;;;5.50;99.90;;;;;;10315982;28;19961;-88
2021/04/26 06:15:52;;;;;;;;;;;6.40;99.90;;;;;;10329615;28;20361;-90
2021/04/26 06:20:54;;;;;;;;;;;7.60;99.90;;;;;;10314714;28;19932;-91
2021/04/26 06:25:55;;;;;;;;;;;7.30;99.90;;;;;;10326787;28;19972;-92
2021/04/26 06:30:57;;;;;;;;;;;7.30;99.90;;;;;;10354795;28;19939;-94
2021/04/26 06:35:58;;;;;;;;;;;10.50;99.20;;;;;;10345968;28;19970;-92
2021/04/26 06:41:00;;;;;;;;;;;9.60;97.70;;;;;;10353406;28;19929;-93
2021/04/26 06:46:01;;;;;;;;;;;10.30;96.10;;;;;;10367121;28;20299;-93
2021/04/26 06:51:02;;;;;;;;;;;10.20;95.90;;;;;;10354863;28;19925;-93
2021/04/26 06:56:04;;;;;;;;;;;10.90;96.10;;;;;;10346626;28;19932;-93
2021/04/26 07:01:05;;;;;;;;;;;11.20;97.70;;;;;;10373891;28;20016;-91
2021/04/26 07:06:07;;;;;;;;;;;10.60;96.00;;;;;;10354568;28;19965;-93
2021/04/26 07:11:08;;;;;;;;;;;10.80;97.80;;;;;;10369962;28;19925;-92
2021/04/26 07:16:10;;;;;;;;;;;;;;;;;;10339051;28;19929;-92
2021/04/26 07:21:13;;;;;;;;;;;10.40;99.90;;;;;;10368695;28;19948;-92
2021/04/26 07:26:15;;;;;;;;;;;10.80;99.90;;;;;;10348200;28;20419;-92
2021/04/26 07:31:17;;;;;;;;;;;;;;;;;;10335751;28;19933;-92
2021/04/26 07:54:22;;;;;;;;;;;12.10;98.10;;;;;;10587744;27;19924;-89
2021/04/26 07:59:24;;;;;;;;;;;12.30;95.50;;;;;;10521482;28;19930;-88
2021/04/26 08:04:25;;;;;;;;;;;12.20;95.90;;;;;;10556757;27;19930;-89
2021/04/26 08:09:27;;;;;;;;;;;12.80;97.40;;;;;;10624298;28;19963;-89
2021/04/26 08:14:28;;;;;;;;;;;13.90;94.80;;;;;;10623911;28;19924;-89
2021/04/26 08:19:29;;;;;;;;;;;13.40;91.70;;;;;;10624884;28;19946;-91
2021/04/26 08:24:31;;;;;;;;;;;13.50;91.70;;;;;;10622445;27;19927;-90
2021/04/26 08:29:32;;;;;;;;;;;13.20;80.40;;;;;;10527843;27;19924;-90
2021/04/26 08:34:33;;;;;;;;;;;14.40;90.20;;;;;;10527524;27;19923;-90
2021/04/26 08:39:34;;;;;;;;;;;14.00;84.50;;;;;;10544777;27;19937;-90
2021/04/26 08:44:36;;;;;;;;;;;14.70;86.30;;;;;;10545001;27;19929;-90
2021/04/26 08:49:38;;;;;;;;;;;14.70;84.20;;;;;;10547076;27;19927;-89
2021/04/26 08:54:39;;;;;;;;;;;14.30;74.90;;;;;;10595551;27;19943;-88
2021/04/26 08:59:43;;;;;;;;;;;15.00;80.10;;;;;;10449687;27;19935;-88
2021/04/26 09:04:49;;;;;;;;;;;14.30;69.90;;;;;;10588356;27;19955;-88
2021/04/26 09:09:53;;;;;;;;;;;;;;;;;;10543937;27;20026;-88
2021/04/26 09:14:54;;;;;;;;;;;;;;;;;;10543725;27;19924;-89
2021/04/26 09:19:56;;;;;;;;;;;;;;;;;;10543373;27;19927;-92
2021/04/26 09:24:57;;;;;;;;;;;15.80;94.50;;;;;;10542126;27;19923;-90
2021/04/26 09:29:59;;;;;;;;;;;;;;;;;;10541735;27;19923;-91
2021/04/26 09:35:00;;;;;;;;;;;;;;;;;;10629013;27;19923;-89
2021/04/26 09:40:04;;;;;;;;;;;16.50;88.70;;;;;;10618755;27;19958;-90
2021/04/26 09:45:24;;;;;;;;;;;16.30;53.90;;;;;;10499925;28;19924;-91
2021/04/26 09:50:26;;;;;;;;;;;16.20;49.90;;;;;;10586778;28;19977;-89
2021/04/26 09:55:29;;;;;;;;;;;17.40;56.20;;;;;;10498916;28;20004;-89
2021/04/26 10:00:30;;;;;;;;;;;;;;;;;;10585482;28;20343;-89
2021/04/26 10:05:32;;;;;;;;;;;16.20;48.00;;;;;;10596752;27;19930;-89
2021/04/26 10:10:34;;;;;;;;;;;17.00;50.00;;;;;;10539732;27;19974;-89
2021/04/26 10:15:36;;;;;;;;;;;16.80;49.00;;;;;;10626767;27;20433;-88
2021/04/26 10:20:40;;;;;;;;;;;15.80;47.30;;;;;;10626959;27;19923;-89
2021/04/26 10:25:42;;;;;;;;;;;16.90;45.70;;;;;;10627150;27;19927;-89
2021/04/26 10:30:55;;;;;;;;;;;16.30;47.10;;;;;;10542313;27;19959;-89
2021/04/26 10:35:57;;;;;;;;;;;15.30;47.40;;;;;;10556528;27;19924;-89
2021/04/26 10:40:59;;;;;;;;;;;16.60;46.40;;;;;;10556816;27;19972;-89
2021/04/26 10:46:16;;;;;;;;;;;16.00;44.70;;;;;;10552882;27;19963;-88
2021/04/26 10:51:21;;;;;;;;;;;16.90;44.40;;;;;;10625502;27;20021;-88
2021/04/26 10:56:27;;;;;;;;;;;18.00;47.60;;;;;;10537109;27;19963;-88
2021/04/26 11:01:49;;;;;;;;;;;17.20;48.40;;;;;;10538738;27;19924;-90
2021/04/26 11:07:15;;;;;;;;;;;16.30;45.60;;;;;;10625800;27;19960;-90
2021/04/26 11:12:29;;;;;;;;;;;15.50;46.40;;;;;;10537595;27;19923;-90
2021/04/26 11:17:31;;;;;;;;;;;17.60;48.10;;;;;;10554252;27;19949;-89
2021/04/26 11:22:33;;;;;;;;;;;17.10;47.90;;;;;;10538266;27;20349;-90
2021/04/26 11:27:36;;;;;;;;;;;16.50;45.70;;;;;;10625950;27;19931;-89
2021/04/26 11:32:53;;;;;;;;;;;17.80;46.90;;;;;;10624918;28;19923;-90
2021/04/26 11:37:55;;;;;;;;;;;17.00;47.60;;;;;;10538614;28;19930;-90
2021/04/26 11:43:03;;;;;;;;;;;17.90;44.50;;;;;;10592638;27;19923;-90
2021/04/26 11:48:18;;;;;;;;;;;16.50;44.50;;;;;;10579351;27;20409;-90
2021/04/26 11:53:23;;;;;;;;;;;17.30;46.40;;;;;;10666879;27;19923;-90
2021/04/26 11:58:25;;;;;;;;;;;16.70;46.10;;;;;;10547300;27;19931;-89
2021/04/26 12:03:27;;;;;;;;;;;15.60;46.20;;;;;;10560112;27;19924;-88
2021/04/26 12:08:44;;;;;;;;;;;15.20;46.20;;;;;;10561168;27;19976;-89
2021/04/26 12:14:05;;;;;;;;;;;16.10;47.00;;;;;;10561404;27;20383;-89
2021/04/26 12:19:06;;;;;;;;;;;16.40;46.70;;;;;;10632570;27;20010;-90
2021/04/26 12:24:10;;;;;;;;;;;16.80;46.90;;;;;;10632677;27;19924;-90
2021/04/26 12:29:23;;;;;;;;;;;17.20;59.20;;;;;;10631691;27;20297;-90
2021/04/26 12:34:24;;;;;;;;;;;17.60;60.20;;;;;;10544304;27;19923;-89
2021/04/26 12:39:26;;;;;;;;;;;17.30;52.00;;;;;;10542723;27;20394;-90
2021/04/26 12:44:27;;;;;;;;;;;17.00;54.70;;;;;;10630493;27;19924;-90
2021/04/26 12:49:29;;;;;;;;;;;17.10;55.40;;;;;;10546646;27;19929;-88
2021/04/26 12:54:30;;;;;;;;;;;17.20;60.10;;;;;;10629392;27;19938;-89
2021/04/26 12:59:44;;;;;;;;;;;17.00;48.50;;;;;;10628534;27;20416;-90
2021/04/26 13:04:46;;;;;;;;;;;17.30;51.70;;;;;;10543274;27;19924;-89
2021/04/26 13:09:58;;;;;;;;;;;17.10;49.40;;;;;;10526674;27;19973;-90
2021/04/26 13:15:00;;;;;;;;;;;16.20;43.80;;;;;;10628696;27;20270;-90
2021/04/26 13:20:18;;;;;;;;;;;16.10;45.50;;;;;;10541792;27;19928;-90
2021/04/26 13:25:29;;;;;;;;;;;16.70;51.40;;;;;;10542922;27;19924;-89
2021/04/26 13:30:30;;;;;;;;;;;15.80;46.50;;;;;;10542264;27;19929;-89
2021/04/26 13:35:32;;;;;;;;;;;16.10;46.10;;;;;;10475330;22;19925;-88
2021/04/26 13:40:34;;;;;;;;;;;15.60;46.10;;;;;;10452884;28;19931;-87
2021/04/26 13:45:35;;;;;;;;;;;16.90;48.90;;;;;;10452012;28;20359;-87
2021/04/26 13:50:37;;;;;;;;;;;16.50;45.10;;;;;;10453333;28;19931;-87
2021/04/26 13:55:39;;;;;;;;;;;17.00;46.90;;;;;;10453346;28;19925;-87
2021/04/26 14:00:40;;;;;;;;;;;16.60;47.30;;;;;;10453967;28;19931;-88
2021/04/26 14:05:42;;;;;;;;;;;16.30;44.70;;;;;;10469838;27;19925;-87
2021/04/26 14:10:43;;;;;;;;;;;17.10;45.30;;;;;;10411046;28;19925;-86
2021/04/26 14:15:44;;;;;;;;;;;17.10;45.70;;;;;;10411434;28;19932;-86
2021/04/26 14:20:46;;;;;;;;;;;16.40;44.20;;;;;;10411767;28;20283;-85
2021/04/26 14:25:47;;;;;;;;;;;16.10;45.00;;;;;;10411818;28;19931;-85
2021/04/26 14:30:48;;;;;;;;;;;16.40;46.30;;;;;;10412345;28;19931;-85
2021/04/26 14:35:49;;;;;;;;;;;16.50;46.40;;;;;;10450021;28;20016;-85
2021/04/26 14:40:51;;;;;;;;;;;16.10;44.30;;;;;;10445553;28;19925;-85
2021/04/26 14:45:52;;;;;;;;;;;16.00;47.10;;;;;;10411369;28;19932;-85
2021/04/26 14:50:54;;;;;;;;;;;16.20;46.70;;;;;;10410072;28;19931;-85
2021/04/26 14:55:56;;;;;;;;;;;16.00;45.60;;;;;;10409749;28;19932;-85
2021/04/26 15:00:57;;;;;;;;;;;16.00;46.10;;;;;;10426472;28;19932;-85
2021/04/26 15:05:58;;;;;;;;;;;15.80;45.20;;;;;;10411145;28;19925;-84
2021/04/26 15:11:01;;;;;;;;;;;16.00;46.20;;;;;;10409745;28;19925;-85
2021/04/26 15:16:03;;;;;;;;;;;16.50;46.70;;;;;;10409126;28;20295;-85
2021/04/26 15:21:09;;;;;;;;;;;15.70;47.30;;;;;;10413315;28;19925;-85
2021/04/26 15:26:10;;;;;;;;;;;15.80;46.90;;;;;;10425665;28;19972;-85
2021/04/26 15:31:11;;;;;;;;;;;15.60;45.20;;;;;;10410409;28;19932;-85
2021/04/26 15:36:13;;;;;;;;;;;15.60;46.50;;;;;;10407933;28;19929;-85
2021/04/26 15:41:14;;;;;;;;;;;16.00;50.20;;;;;;10419299;28;19932;-85
2021/04/26 15:46:15;;;;;;;;;;;15.70;46.90;;;;;;10449383;28;19924;-85
2021/04/26 15:51:18;;;;;;;;;;;15.60;46.50;;;;;;10449586;28;19929;-85
2021/04/26 15:56:19;;;;;;;;;;;15.30;48.20;;;;;;10448678;28;20012;-84
2021/04/26 16:01:21;;;;;;;;;;;15.20;48.70;;;;;;10450939;28;19925;-85
2021/04/26 16:06:22;;;;;;;;;;;15.20;47.90;;;;;;10450032;28;19929;-85
2021/04/26 16:11:24;;;;;;;;;;;15.10;50.50;;;;;;10448215;28;19933;-87
2021/04/26 16:16:25;;;;;;;;;;;15.00;49.90;;;;;;10449487;28;19924;-86
2021/04/26 16:21:26;;;;;;;;;;;15.00;49.90;;;;;;10449057;28;19925;-85
2021/04/26 16:26:28;;;;;;;;;;;15.20;53.00;;;;;;10432091;28;19933;-86
2021/04/26 16:31:30;;;;;;;;;;;14.80;49.30;;;;;;10448832;28;19924;-84
2021/04/26 16:36:31;;;;;;;;;;;14.70;51.50;;;;;;10545638;28;19924;-84
2021/04/26 16:41:32;;;;;;;;;;;14.40;53.90;;;;;;10603208;28;19932;-85
2021/04/26 16:46:34;;;;;;;;;;;14.80;53.50;;;;;;10607818;27;19923;-84
2021/04/26 16:51:35;;;;;;;;;;;14.30;53.30;;;;;;10631098;27;20370;-84
2021/04/26 16:56:37;;;;;;;;;;;14.60;54.90;;;;;;10605164;27;19963;-84
2021/04/26 17:01:40;;;;;;;;;;;14.00;54.30;;;;;;10587944;28;20374;-85
2021/04/26 17:06:41;;;;;;;;;;;14.00;56.00;;;;;;10586530;28;19924;-84
2021/04/26 17:11:42;;;;;;;;;;;13.90;54.90;;;;;;10587346;28;20293;-84
2021/04/26 17:16:44;;;;;;;;;;;13.80;54.90;;;;;;10586842;28;19923;-84
2021/04/26 17:21:46;;;;;;;;;;;13.50;55.30;;;;;;10586258;28;20745;-84
2021/04/26 17:26:47;;;;;;;;;;;13.40;54.50;;;;;;10603458;27;20010;-84
2021/04/26 17:31:50;;;;;;;;;;;13.20;58.20;;;;;;10605064;27;19931;-84
2021/04/26 17:36:51;;;;;;;;;;;13.20;59.00;;;;;;10500937;27;19924;-85
2021/04/26 17:41:52;;;;;;;;;;;12.70;58.90;;;;;;10455243;27;19943;-85
2021/04/26 17:46:54;;;;;;;;;;;13.10;59.90;;;;;;10469512;28;20431;-84
2021/04/26 17:51:58;;;;;;;;;;;12.80;58.50;;;;;;10437326;28;20019;-84
2021/04/26 17:57:00;;;;;;;;;;;12.60;63.10;;;;;;10453859;28;19932;-84
2021/04/26 18:02:02;;;;;;;;;;;12.50;62.40;;;;;;10453192;28;19931;-85
2021/04/26 18:07:03;;;;;;;;;;;12.50;64.20;;;;;;10452840;28;19928;-85
2021/04/26 18:12:05;;;;;;;;;;;12.80;69.00;;;;;;10469542;28;19931;-85
2021/04/26 18:17:06;;;;;;;;;;;12.10;64.60;;;;;;10453493;28;19947;-85
2021/04/26 18:22:07;;;;;;;;;;;11.90;66.90;;;;;;10468978;28;19925;-85
2021/04/26 18:27:09;;;;;;;;;;;12.00;68.70;;;;;;10452603;28;19925;-85
2021/04/26 18:32:10;;;;;;;;;;;11.60;72.50;;;;;;10452727;28;19928;-84
2021/04/26 18:37:12;;;;;;;;;;;11.50;69.30;;;;;;10451507;28;20329;-85
2021/04/26 18:42:15;;;;;;;;;;;11.80;75.90;;;;;;10451218;28;20398;-84
2021/04/26 18:47:18;;;;;;;;;;;11.20;72.50;;;;;;10434889;28;19925;-85
2021/04/26 18:52:20;;;;;;;;;;;10.90;77.50;;;;;;10452717;28;19925;-85
2021/04/26 18:57:21;;;;;;;;;;;10.80;82.10;;;;;;10452681;28;19931;-85
2021/04/26 19:02:25;;;;;;;;;;;10.60;83.50;;;;;;10452336;28;20011;-85
2021/04/26 19:07:27;;;;;;;;;;;10.90;81.30;;;;;;10452062;28;20003;-85
2021/04/26 19:12:32;;;;;;;;;;;10.60;77.60;;;;;;10449635;28;19932;-85
2021/04/26 19:17:33;;;;;;;;;;;11.00;78.60;;;;;;10467313;28;19924;-85
2021/04/26 19:22:35;;;;;;;;;;;10.50;88.70;;;;;;10450132;28;20296;-85
2021/04/26 19:27:37;;;;;;;;;;;10.80;94.40;;;;;;10451028;28;20367;-85
2021/04/26 19:32:46;;;;;;;;;;;9.90;92.30;;;;;;10464801;28;21230;-85
2021/04/26 19:37:48;;;;;;;;;;;9.50;93.00;;;;;;10448882;28;20313;-85
2021/04/26 19:42:49;;;;;;;;;;;9.40;95.10;;;;;;10450084;28;19924;-85
2021/04/26 19:47:51;;;;;;;;;;;9.90;96.00;;;;;;10449554;28;19925;-85
2021/04/26 19:52:53;;;;;;;;;;;9.20;96.50;;;;;;10561252;22;19934;-89
2021/04/26 19:57:55;;;;;;;;;;;9.20;97.10;;;;;;10546091;28;19928;-89
2021/04/26 20:02:56;;;;;;;;;;;9.00;97.40;;;;;;10545748;28;19923;-89
2021/04/26 20:07:58;;;;;;;;;;;9.00;97.60;;;;;;10580689;28;19928;-88
2021/04/26 20:12:59;;;;;;;;;;;8.80;98.10;;;;;;10579194;28;20022;-88
2021/04/26 20:18:01;;;;;;;;;;;8.30;98.60;;;;;;10579171;28;19999;-88
2021/04/26 20:23:02;;;;;;;;;;;8.50;94.80;;;;;;10566818;28;19924;-89
2021/04/26 20:28:04;;;;;;;;;;;8.80;95.10;;;;;;10588078;28;19963;-90
2021/04/26 20:33:06;;;;;;;;;;;8.50;94.70;;;;;;10569361;28;19930;-89
2021/04/26 20:38:08;;;;;;;;;;;8.60;94.20;;;;;;10585628;28;19924;-89
2021/04/26 20:43:10;;;;;;;;;;;8.30;94.60;;;;;;10585382;28;19930;-89
2021/04/26 20:48:11;;;;;;;;;;;8.20;94.40;;;;;;10568685;28;19989;-89
2021/04/26 20:53:12;;;;;;;;;;;6.50;94.60;;;;;;10473689;28;1536544;-88
2021/04/26 20:58:14;;;;;;;;;;;7.90;95.10;;;;;;10571024;28;19928;-89
2021/04/26 21:03:16;;;;;;;;;;;8.60;97.90;;;;;;10553341;28;20286;-89
2021/04/26 21:08:17;;;;;;;;;;;7.80;96.30;;;;;;10570573;28;19923;-89
2021/04/26 21:13:18;;;;;;;;;;;8.50;97.70;;;;;;10587605;28;20015;-89
2021/04/26 21:18:22;;;;;;;;;;;7.70;97.20;;;;;;10553562;28;19930;-89
2021/04/26 21:23:25;;;;;;;;;;;7.60;97.30;;;;;;10586381;28;20374;-89
2021/04/26 21:28:26;;;;;;;;;;;7.70;98.40;;;;;;10569662;28;19930;-89
2021/04/26 21:33:28;;;;;;;;;;;7.40;98.30;;;;;;10585710;28;19924;-89
2021/04/26 21:38:29;;;;;;;;;;;7.20;98.60;;;;;;10587373;28;19924;-88
2021/04/26 21:43:33;;;;;;;;;;;9.20;99.90;;;;;;10563626;28;20293;-89
2021/04/26 21:48:36;;;;;;;;;;;7.20;99.90;;;;;;10511020;28;20035;-89
2021/04/26 21:53:37;;;;;;;;;;;6.70;99.90;;;;;;10544357;28;19924;-89
2021/04/26 21:58:39;;;;;;;;;;;6.50;99.90;;;;;;10542228;28;19959;-89
2021/04/26 22:03:40;;;;;;;;;;;7.80;99.90;;;;;;10525718;28;19975;-89
2021/04/26 22:08:41;;;;;;;;;;;8.70;99.90;;;;;;10527261;28;19931;-89
2021/04/26 22:13:43;;;;;;;;;;;6.70;99.90;;;;;;10519560;28;19924;-90
2021/04/26 22:18:44;;;;;;;;;;;8.40;99.90;;;;;;10532584;28;19928;-90
2021/04/26 22:23:46;;;;;;;;;;;6.90;99.90;;;;;;10542668;28;19924;-90
2021/04/26 22:28:47;;;;;;;;;;;8.60;99.90;;;;;;10525124;28;19924;-90
2021/04/26 22:33:48;;;;;;;;;;;9.40;99.90;;;;;;10525000;28;20021;-90
2021/04/26 22:38:50;;;;;;;;;;;6.10;99.90;;;;;;10542821;28;19930;-90
2021/04/26 22:43:52;;;;;;;;;;;6.00;99.90;;;;;;10524377;28;19931;-90
2021/04/26 22:48:53;;;;;;;;;;;6.20;99.90;;;;;;10542566;28;19924;-90
2021/04/26 22:53:55;;;;;;;;;;;6.00;99.90;;;;;;10580295;28;19928;-90
2021/04/26 22:58:56;;;;;;;;;;;6.10;99.90;;;;;;10568287;28;19924;-90
2021/04/26 23:03:58;;;;;;;;;;;8.50;99.90;;;;;;10550978;28;19959;-90
2021/04/26 23:08:59;;;;;;;;;;;6.40;99.90;;;;;;10507528;28;19924;-91
2021/04/26 23:14:01;;;;;;;;;;;7.00;99.90;;;;;;10523611;28;19931;-91
2021/04/26 23:19:02;;;;;;;;;;;5.50;99.90;;;;;;10507950;28;19930;-91
2021/04/26 23:24:04;;;;;;;;;;;5.40;99.90;;;;;;10541674;28;19928;-91
2021/04/26 23:29:06;;;;;;;;;;;5.50;99.90;;;;;;10539921;28;19970;-91
2021/04/26 23:34:07;;;;;;;;;;;5.60;99.90;;;;;;10506538;28;20278;-89
2021/04/26 23:39:08;;;;;;;;;;;5.00;99.90;;;;;;10507067;28;20016;-89
2021/04/26 23:44:09;;;;;;;;;;;5.00;99.90;;;;;;10541472;28;19931;-89
2021/04/26 23:49:11;;;;;;;;;;;7.50;99.90;;;;;;10562760;28;20386;-89
2021/04/26 23:54:12;;;;;;;;;;;5.60;99.90;;;;;;10564761;28;20281;-89
2021/04/26 23:59:14;;;;;;;;;;;6.40;99.90;;;;;;10591224;28;20263;-90
